sensor_id;sensor_type;location;lat;lon;timestamp;pressure;altitude;pressure_sealevel;temperature;humidity
27805;BME280;15183;51.350;11.102;2023-04-23T00:01:56;99204.75;;;21.19;43.39
27805;BME280;15183;51.350;11.102;2023-04-23T00:04:25;99198.56;;;21.18;43.47
27805;BME280;15183;51.350;11.102;2023-04-23T00:06:52;99199.53;;;21.14;43.40
27805;BME280;15183;51.350;11.102;2023-04-23T00:09:18;99184.25;;;21.00;43.56
27805;BME280;15183;51.350;11.102;2023-04-23T00:11:46;99197.91;;;21.04;43.76
27805;BME280;15183;51.350;11.102;2023-04-23T00:14:13;99199.44;;;20.96;44.37
27805;BME280;15183;51.350;11.102;2023-04-23T00:16:40;99193.84;;;20.84;44.76
27805;BME280;15183;51.350;11.102;2023-04-23T00:19:06;99197.19;;;20.80;44.47
27805;BME280;15183;51.350;11.102;2023-04-23T00:21:33;99196.47;;;20.75;44.48
27805;BME280;15183;51.350;11.102;2023-04-23T00:23:59;99198.19;;;20.71;45.12
27805;BME280;15183;51.350;11.102;2023-04-23T00:26:26;99187.34;;;20.53;45.77
27805;BME280;15183;51.350;11.102;2023-04-23T00:28:52;99194.47;;;20.49;45.53
27805;BME280;15183;51.350;11.102;2023-04-23T00:31:19;99179.31;;;20.30;45.88
27805;BME280;15183;51.350;11.102;2023-04-23T00:33:47;99188.06;;;20.36;46.29
27805;BME280;15183;51.350;11.102;2023-04-23T00:36:14;99186.75;;;20.33;46.26
27805;BME280;15183;51.350;11.102;2023-04-23T00:38:40;99185.34;;;20.36;45.91
27805;BME280;15183;51.350;11.102;2023-04-23T00:41:10;99193.97;;;20.47;45.81
27805;BME280;15183;51.350;11.102;2023-04-23T00:43:36;99187.97;;;20.50;46.28
27805;BME280;15183;51.350;11.102;2023-04-23T00:46:03;99195.72;;;20.51;45.97
27805;BME280;15183;51.350;11.102;2023-04-23T00:48:30;99189.25;;;20.52;46.25
27805;BME280;15183;51.350;11.102;2023-04-23T00:51:04;99185.78;;;20.52;46.10
27805;BME280;15183;51.350;11.102;2023-04-23T00:53:32;99187.97;;;20.50;46.86
27805;BME280;15183;51.350;11.102;2023-04-23T00:56:00;99189.69;;;20.46;46.90
27805;BME280;15183;51.350;11.102;2023-04-23T00:58:28;99184.25;;;20.37;47.03
27805;BME280;15183;51.350;11.102;2023-04-23T01:00:56;99171.84;;;20.27;47.21
27805;BME280;15183;51.350;11.102;2023-04-23T01:03:24;99164.81;;;20.17;47.28
27805;BME280;15183;51.350;11.102;2023-04-23T01:05:51;99166.41;;;20.18;47.37
27805;BME280;15183;51.350;11.102;2023-04-23T01:08:17;99171.00;;;20.18;47.49
27805;BME280;15183;51.350;11.102;2023-04-23T01:10:45;99184.31;;;20.23;47.55
27805;BME280;15183;51.350;11.102;2023-04-23T01:13:12;99180.34;;;20.20;47.92
27805;BME280;15183;51.350;11.102;2023-04-23T01:15:39;99160.31;;;20.04;47.24
27805;BME280;15183;51.350;11.102;2023-04-23T01:18:06;99170.25;;;20.03;47.75
27805;BME280;15183;51.350;11.102;2023-04-23T01:20:36;99185.28;;;20.04;47.68
27805;BME280;15183;51.350;11.102;2023-04-23T01:23:03;99167.19;;;19.96;48.02
27805;BME280;15183;51.350;11.102;2023-04-23T01:25:30;99184.31;;;20.00;47.59
27805;BME280;15183;51.350;11.102;2023-04-23T01:27:57;99184.31;;;20.00;48.13
27805;BME280;15183;51.350;11.102;2023-04-23T01:30:27;99175.25;;;19.96;48.02
27805;BME280;15183;51.350;11.102;2023-04-23T01:32:55;99182.44;;;20.01;48.28
27805;BME280;15183;51.350;11.102;2023-04-23T01:35:23;99175.38;;;19.91;47.97
27805;BME280;15183;51.350;11.102;2023-04-23T01:37:50;99184.91;;;19.97;47.90
27805;BME280;15183;51.350;11.102;2023-04-23T01:40:19;99175.38;;;19.91;48.32
27805;BME280;15183;51.350;11.102;2023-04-23T01:42:47;99178.94;;;19.86;48.62
27805;BME280;15183;51.350;11.102;2023-04-23T01:45:14;99185.91;;;19.87;48.37
27805;BME280;15183;51.350;11.102;2023-04-23T01:47:40;99177.78;;;19.78;48.84
27805;BME280;15183;51.350;11.102;2023-04-23T01:50:08;99181.59;;;19.77;48.41
27805;BME280;15183;51.350;11.102;2023-04-23T01:52:34;99181.38;;;19.74;49.28
27805;BME280;15183;51.350;11.102;2023-04-23T01:55:01;99182.59;;;19.67;49.22
27805;BME280;15183;51.350;11.102;2023-04-23T01:57:27;99178.56;;;19.56;48.82
27805;BME280;15183;51.350;11.102;2023-04-23T02:00:08;99172.50;;;19.50;49.10
27805;BME280;15183;51.350;11.102;2023-04-23T02:02:37;99152.44;;;19.34;48.95
27805;BME280;15183;51.350;11.102;2023-04-23T02:05:11;99163.34;;;19.37;49.33
27805;BME280;15183;51.350;11.102;2023-04-23T02:07:39;99178.09;;;19.40;49.20
27805;BME280;15183;51.350;11.102;2023-04-23T02:10:06;99127.94;;;18.93;49.46
27805;BME280;15183;51.350;11.102;2023-04-23T02:12:33;99173.22;;;19.28;50.08
27805;BME280;15183;51.350;11.102;2023-04-23T02:15:00;99147.88;;;19.06;49.92
27805;BME280;15183;51.350;11.102;2023-04-23T02:17:27;99168.94;;;19.13;50.48
27805;BME280;15183;51.350;11.102;2023-04-23T02:19:54;99152.84;;;18.99;50.12
27805;BME280;15183;51.350;11.102;2023-04-23T02:22:23;99138.50;;;18.90;50.44
27805;BME280;15183;51.350;11.102;2023-04-23T02:24:52;99174.59;;;19.12;50.83
27805;BME280;15183;51.350;11.102;2023-04-23T02:27:19;99174.13;;;19.09;51.01
27805;BME280;15183;51.350;11.102;2023-04-23T02:29:47;99172.34;;;19.05;51.17
27805;BME280;15183;51.350;11.102;2023-04-23T02:32:14;99175.31;;;19.03;50.95
27805;BME280;15183;51.350;11.102;2023-04-23T02:34:41;99170.84;;;18.99;51.11
27805;BME280;15183;51.350;11.102;2023-04-23T02:37:07;99172.81;;;18.93;51.16
27805;BME280;15183;51.350;11.102;2023-04-23T02:39:33;99170.22;;;18.88;52.01
27805;BME280;15183;51.350;11.102;2023-04-23T02:42:00;99172.69;;;18.84;51.91
27805;BME280;15183;51.350;11.102;2023-04-23T02:44:27;99153.59;;;18.72;51.86
27805;BME280;15183;51.350;11.102;2023-04-23T02:46:53;99179.25;;;18.78;52.55
27805;BME280;15183;51.350;11.102;2023-04-23T02:49:19;99166.81;;;18.68;52.46
27805;BME280;15183;51.350;11.102;2023-04-23T02:51:46;99168.50;;;18.64;52.65
27805;BME280;15183;51.350;11.102;2023-04-23T02:54:13;99169.47;;;18.54;53.09
27805;BME280;15183;51.350;11.102;2023-04-23T02:56:40;99175.91;;;18.53;53.56
27805;BME280;15183;51.350;11.102;2023-04-23T02:59:06;99159.50;;;18.41;53.10
27805;BME280;15183;51.350;11.102;2023-04-23T03:01:33;99167.78;;;18.44;52.84
27805;BME280;15183;51.350;11.102;2023-04-23T03:04:00;99142.00;;;18.29;53.25
27805;BME280;15183;51.350;11.102;2023-04-23T03:06:26;99183.19;;;18.52;53.03
27805;BME280;15183;51.350;11.102;2023-04-23T03:08:53;99165.50;;;18.51;53.15
27805;BME280;15183;51.350;11.102;2023-04-23T03:11:19;99174.47;;;18.61;53.13
27805;BME280;15183;51.350;11.102;2023-04-23T03:13:46;99157.84;;;18.59;52.98
27805;BME280;15183;51.350;11.102;2023-04-23T03:16:12;99171.41;;;18.68;53.01
27805;BME280;15183;51.350;11.102;2023-04-23T03:18:39;99157.25;;;18.62;52.67
27805;BME280;15183;51.350;11.102;2023-04-23T03:21:05;99166.53;;;18.70;52.84
27805;BME280;15183;51.350;11.102;2023-04-23T03:23:32;99172.06;;;18.73;52.43
27805;BME280;15183;51.350;11.102;2023-04-23T03:25:58;99166.94;;;18.77;52.51
27805;BME280;15183;51.350;11.102;2023-04-23T03:28:25;99175.69;;;18.83;52.74
27805;BME280;15183;51.350;11.102;2023-04-23T03:30:51;99162.38;;;18.77;52.85
27805;BME280;15183;51.350;11.102;2023-04-23T03:33:17;99162.56;;;18.81;52.80
27805;BME280;15183;51.350;11.102;2023-04-23T03:35:44;99168.72;;;18.82;52.43
27805;BME280;15183;51.350;11.102;2023-04-23T03:38:10;99161.34;;;18.73;52.65
27805;BME280;15183;51.350;11.102;2023-04-23T03:40:37;99164.94;;;18.69;52.98
27805;BME280;15183;51.350;11.102;2023-04-23T03:43:03;99155.78;;;18.56;52.80
27805;BME280;15183;51.350;11.102;2023-04-23T03:45:31;99168.81;;;18.62;53.52
27805;BME280;15183;51.350;11.102;2023-04-23T03:47:57;99149.19;;;18.48;53.02
27805;BME280;15183;51.350;11.102;2023-04-23T03:50:24;99183.00;;;18.63;53.23
27805;BME280;15183;51.350;11.102;2023-04-23T03:52:50;99170.66;;;18.48;53.75
27805;BME280;15183;51.350;11.102;2023-04-23T03:55:17;99165.38;;;18.43;53.72
27805;BME280;15183;51.350;11.102;2023-04-23T03:57:43;99161.78;;;18.33;53.76
27805;BME280;15183;51.350;11.102;2023-04-23T04:00:10;99177.19;;;18.42;54.14
27805;BME280;15183;51.350;11.102;2023-04-23T04:02:38;99158.19;;;18.24;54.28
27805;BME280;15183;51.350;11.102;2023-04-23T04:05:05;99179.38;;;18.40;54.17
27805;BME280;15183;51.350;11.102;2023-04-23T04:07:32;99179.97;;;18.36;54.47
27805;BME280;15183;51.350;11.102;2023-04-23T04:09:59;99189.09;;;18.35;54.73
27805;BME280;15183;51.350;11.102;2023-04-23T04:12:28;99186.69;;;18.34;54.42
27805;BME280;15183;51.350;11.102;2023-04-23T04:14:54;99133.00;;;17.87;54.68
27805;BME280;15183;51.350;11.102;2023-04-23T04:17:21;99186.50;;;18.30;55.18
27805;BME280;15183;51.350;11.102;2023-04-23T04:19:47;99174.06;;;18.20;55.22
27805;BME280;15183;51.350;11.102;2023-04-23T04:22:14;99165.78;;;18.17;55.66
27805;BME280;15183;51.350;11.102;2023-04-23T04:24:41;99178.91;;;18.18;55.51
27805;BME280;15183;51.350;11.102;2023-04-23T04:27:07;99169.44;;;18.07;55.42
27805;BME280;15183;51.350;11.102;2023-04-23T04:29:34;99104.13;;;17.64;55.75
27805;BME280;15183;51.350;11.102;2023-04-23T04:32:01;99179.88;;;18.08;55.71
27805;BME280;15183;51.350;11.102;2023-04-23T04:34:28;99190.59;;;18.08;55.78
27805;BME280;15183;51.350;11.102;2023-04-23T04:36:54;99184.22;;;18.04;56.44
27805;BME280;15183;51.350;11.102;2023-04-23T04:39:20;99178.41;;;17.97;56.22
27805;BME280;15183;51.350;11.102;2023-04-23T04:41:47;99193.13;;;18.00;56.62
27805;BME280;15183;51.350;11.102;2023-04-23T04:44:13;99182.84;;;17.88;56.59
27805;BME280;15183;51.350;11.102;2023-04-23T04:46:41;99193.19;;;17.94;57.01
27805;BME280;15183;51.350;11.102;2023-04-23T04:49:11;99194.34;;;17.88;57.04
27805;BME280;15183;51.350;11.102;2023-04-23T04:51:39;99187.69;;;17.86;57.16
27805;BME280;15183;51.350;11.102;2023-04-23T04:54:07;99190.66;;;17.84;57.38
27805;BME280;15183;51.350;11.102;2023-04-23T04:56:33;99176.31;;;17.75;57.36
27805;BME280;15183;51.350;11.102;2023-04-23T04:59:03;99205.38;;;17.87;58.13
27805;BME280;15183;51.350;11.102;2023-04-23T05:01:29;99175.59;;;17.69;57.80
27805;BME280;15183;51.350;11.102;2023-04-23T05:03:58;99197.75;;;17.75;57.65
27805;BME280;15183;51.350;11.102;2023-04-23T05:06:25;99189.34;;;17.62;58.00
27805;BME280;15183;51.350;11.102;2023-04-23T05:08:53;99203.47;;;17.68;58.66
27805;BME280;15183;51.350;11.102;2023-04-23T05:11:20;99200.94;;;17.58;58.81
27805;BME280;15183;51.350;11.102;2023-04-23T05:13:47;99200.69;;;17.54;58.82
27805;BME280;15183;51.350;11.102;2023-04-23T05:16:14;99192.00;;;17.43;58.71
27805;BME280;15183;51.350;11.102;2023-04-23T05:18:41;99213.06;;;17.50;58.84
27805;BME280;15183;51.350;11.102;2023-04-23T05:21:07;99221.41;;;17.48;59.31
27805;BME280;15183;51.350;11.102;2023-04-23T05:23:34;99180.28;;;17.15;59.68
27805;BME280;15183;51.350;11.102;2023-04-23T05:26:02;99205.56;;;17.28;59.55
27805;BME280;15183;51.350;11.102;2023-04-23T05:28:29;99222.09;;;17.35;59.57
27805;BME280;15183;51.350;11.102;2023-04-23T05:30:56;99228.00;;;17.32;60.06
27805;BME280;15183;51.350;11.102;2023-04-23T05:33:24;99223.53;;;17.27;60.27
27805;BME280;15183;51.350;11.102;2023-04-23T05:35:51;99211.00;;;17.23;60.42
27805;BME280;15183;51.350;11.102;2023-04-23T05:38:18;99216.91;;;17.19;60.68
27805;BME280;15183;51.350;11.102;2023-04-23T05:40:44;99203.59;;;17.14;60.32
27805;BME280;15183;51.350;11.102;2023-04-23T05:43:11;99191.94;;;17.05;60.58
27805;BME280;15183;51.350;11.102;2023-04-23T05:45:37;99204.69;;;17.13;60.97
27805;BME280;15183;51.350;11.102;2023-04-23T05:48:04;99218.78;;;17.19;60.77
27805;BME280;15183;51.350;11.102;2023-04-23T05:50:30;99225.16;;;17.23;61.26
27805;BME280;15183;51.350;11.102;2023-04-23T05:52:57;99225.47;;;17.21;61.15
27805;BME280;15183;51.350;11.102;2023-04-23T05:55:23;99237.69;;;17.28;61.50
27805;BME280;15183;51.350;11.102;2023-04-23T05:57:50;99241.19;;;17.28;61.34
27805;BME280;15183;51.350;11.102;2023-04-23T06:00:17;99225.00;;;17.14;61.10
27805;BME280;15183;51.350;11.102;2023-04-23T06:02:43;99242.94;;;17.14;61.62
27805;BME280;15183;51.350;11.102;2023-04-23T06:05:09;99222.22;;;16.95;61.12
27805;BME280;15183;51.350;11.102;2023-04-23T06:07:36;99262.03;;;17.07;61.80
27805;BME280;15183;51.350;11.102;2023-04-23T06:10:04;99252.31;;;16.82;61.34
27805;BME280;15183;51.350;11.102;2023-04-23T06:12:30;99269.78;;;16.74;61.49
27805;BME280;15183;51.350;11.102;2023-04-23T06:14:57;99245.41;;;16.46;61.59
27805;BME280;15183;51.350;11.102;2023-04-23T06:17:23;99260.09;;;16.48;62.13
27805;BME280;15183;51.350;11.102;2023-04-23T06:19:50;99240.13;;;16.35;62.24
27805;BME280;15183;51.350;11.102;2023-04-23T06:22:17;99255.38;;;16.35;62.00
27805;BME280;15183;51.350;11.102;2023-04-23T06:24:43;99256.19;;;16.35;62.38
27805;BME280;15183;51.350;11.102;2023-04-23T06:27:09;99265.75;;;16.42;62.29
27805;BME280;15183;51.350;11.102;2023-04-23T06:29:36;99267.88;;;16.45;62.31
27805;BME280;15183;51.350;11.102;2023-04-23T06:32:03;99208.00;;;16.01;62.13
27805;BME280;15183;51.350;11.102;2023-04-23T06:34:30;99273.22;;;16.45;62.31
27805;BME280;15183;51.350;11.102;2023-04-23T06:36:57;99268.38;;;16.47;61.87
27805;BME280;15183;51.350;11.102;2023-04-23T06:39:23;99275.84;;;16.50;61.80
27805;BME280;15183;51.350;11.102;2023-04-23T06:41:50;99269.72;;;16.44;61.95
27805;BME280;15183;51.350;11.102;2023-04-23T06:44:16;99269.97;;;16.48;62.27
27805;BME280;15183;51.350;11.102;2023-04-23T06:46:43;99257.69;;;16.47;61.85
27805;BME280;15183;51.350;11.102;2023-04-23T06:49:09;99178.16;;;15.94;61.59
27805;BME280;15183;51.350;11.102;2023-04-23T06:51:35;99281.63;;;16.62;61.39
27805;BME280;15183;51.350;11.102;2023-04-23T06:54:02;99242.75;;;16.41;61.44
27805;BME280;15183;51.350;11.102;2023-04-23T06:56:28;99262.06;;;16.67;61.68
27805;BME280;15183;51.350;11.102;2023-04-23T06:58:55;99260.16;;;16.73;61.47
27805;BME280;15183;51.350;11.102;2023-04-23T07:01:21;99269.38;;;16.91;61.29
27805;BME280;15183;51.350;11.102;2023-04-23T07:03:48;99267.19;;;16.98;61.09
27805;BME280;15183;51.350;11.102;2023-04-23T07:06:16;99267.66;;;17.05;61.14
27805;BME280;15183;51.350;11.102;2023-04-23T07:08:43;99253.94;;;17.12;61.12
27805;BME280;15183;51.350;11.102;2023-04-23T07:11:10;99275.38;;;17.36;60.50
27805;BME280;15183;51.350;11.102;2023-04-23T07:13:38;99279.81;;;17.46;60.56
27805;BME280;15183;51.350;11.102;2023-04-23T07:16:04;99269.56;;;17.54;60.67
27805;BME280;15183;51.350;11.102;2023-04-23T07:18:31;99273.69;;;17.65;59.89
27805;BME280;15183;51.350;11.102;2023-04-23T07:20:57;99262.25;;;17.78;59.78
27805;BME280;15183;51.350;11.102;2023-04-23T07:23:24;99282.56;;;18.09;60.21
27805;BME280;15183;51.350;11.102;2023-04-23T07:25:51;99262.31;;;18.17;60.21
27805;BME280;15183;51.350;11.102;2023-04-23T07:28:17;99277.16;;;18.47;59.79
27805;BME280;15183;51.350;11.102;2023-04-23T07:30:44;99268.72;;;18.54;59.81
27805;BME280;15183;51.350;11.102;2023-04-23T07:33:11;99275.59;;;18.79;59.27
27805;BME280;15183;51.350;11.102;2023-04-23T07:35:37;99274.00;;;18.92;59.26
27805;BME280;15183;51.350;11.102;2023-04-23T07:38:03;99277.75;;;19.11;58.87
27805;BME280;15183;51.350;11.102;2023-04-23T07:40:30;99278.94;;;19.18;58.59
27805;BME280;15183;51.350;11.102;2023-04-23T07:42:56;99290.31;;;19.29;58.20
27805;BME280;15183;51.350;11.102;2023-04-23T07:45:24;99271.41;;;19.20;57.88
27805;BME280;15183;51.350;11.102;2023-04-23T07:47:50;99291.69;;;19.41;58.18
27805;BME280;15183;51.350;11.102;2023-04-23T07:50:20;99301.47;;;19.64;57.48
27805;BME280;15183;51.350;11.102;2023-04-23T07:52:46;99298.66;;;19.70;57.62
27805;BME280;15183;51.350;11.102;2023-04-23T07:55:13;99293.69;;;19.77;57.63
27805;BME280;15183;51.350;11.102;2023-04-23T07:57:39;99291.69;;;19.83;56.80
27805;BME280;15183;51.350;11.102;2023-04-23T08:00:06;99312.50;;;20.05;56.70
27805;BME280;15183;51.350;11.102;2023-04-23T08:02:36;99251.59;;;19.72;56.55
27805;BME280;15183;51.350;11.102;2023-04-23T08:05:02;99290.44;;;20.17;57.25
27805;BME280;15183;51.350;11.102;2023-04-23T08:07:29;99277.25;;;20.29;57.37
27805;BME280;15183;51.350;11.102;2023-04-23T08:09:55;99301.25;;;20.62;57.06
27805;BME280;15183;51.350;11.102;2023-04-23T08:12:24;99290.22;;;20.73;56.73
27805;BME280;15183;51.350;11.102;2023-04-23T08:14:50;99289.75;;;20.93;57.04
27805;BME280;15183;51.350;11.102;2023-04-23T08:17:17;99216.56;;;20.68;57.41
27805;BME280;15183;51.350;11.102;2023-04-23T08:19:43;99286.94;;;21.39;56.13
27805;BME280;15183;51.350;11.102;2023-04-23T08:22:09;99290.16;;;21.50;55.77
27805;BME280;15183;51.350;11.102;2023-04-23T08:24:36;99279.13;;;21.69;55.62
27805;BME280;15183;51.350;11.102;2023-04-23T08:27:03;99296.28;;;21.91;54.87
27805;BME280;15183;51.350;11.102;2023-04-23T08:29:29;99268.53;;;21.90;54.23
27805;BME280;15183;51.350;11.102;2023-04-23T08:31:55;99307.72;;;22.14;53.35
27805;BME280;15183;51.350;11.102;2023-04-23T08:34:22;99285.34;;;22.05;52.88
27805;BME280;15183;51.350;11.102;2023-04-23T08:36:48;99279.03;;;22.09;52.16
27805;BME280;15183;51.350;11.102;2023-04-23T08:39:15;99242.19;;;21.96;52.37
27805;BME280;15183;51.350;11.102;2023-04-23T08:41:41;99300.13;;;22.43;51.61
27805;BME280;15183;51.350;11.102;2023-04-23T08:44:17;99299.34;;;22.51;51.04
27805;BME280;15183;51.350;11.102;2023-04-23T08:46:44;99281.56;;;22.50;50.33
27805;BME280;15183;51.350;11.102;2023-04-23T08:49:20;99297.78;;;22.59;49.91
27805;BME280;15183;51.350;11.102;2023-04-23T08:51:53;99290.31;;;22.55;50.30
27805;BME280;15183;51.350;11.102;2023-04-23T08:54:27;99294.38;;;22.70;49.81
27805;BME280;15183;51.350;11.102;2023-04-23T08:56:57;99255.03;;;22.52;49.35
27805;BME280;15183;51.350;11.102;2023-04-23T08:59:25;99296.91;;;22.84;49.02
27805;BME280;15183;51.350;11.102;2023-04-23T09:01:54;99291.84;;;22.83;48.25
27805;BME280;15183;51.350;11.102;2023-04-23T09:04:21;99286.28;;;22.70;48.06
27805;BME280;15183;51.350;11.102;2023-04-23T09:06:50;99287.75;;;22.59;48.01
27805;BME280;15183;51.350;11.102;2023-04-23T09:09:17;99294.44;;;22.62;47.79
27805;BME280;15183;51.350;11.102;2023-04-23T09:11:45;99289.97;;;22.66;48.34
27805;BME280;15183;51.350;11.102;2023-04-23T09:14:12;99285.13;;;22.98;47.93
27805;BME280;15183;51.350;11.102;2023-04-23T09:16:39;99270.91;;;23.27;47.95
27805;BME280;15183;51.350;11.102;2023-04-23T09:19:10;99284.91;;;23.81;47.11
27805;BME280;15183;51.350;11.102;2023-04-23T09:21:38;99286.84;;;24.23;46.22
27805;BME280;15183;51.350;11.102;2023-04-23T09:24:08;99276.03;;;24.23;45.12
27805;BME280;15183;51.350;11.102;2023-04-23T09:26:47;99300.56;;;24.39;45.16
27805;BME280;15183;51.350;11.102;2023-04-23T09:29:16;99301.03;;;24.41;45.45
27805;BME280;15183;51.350;11.102;2023-04-23T09:31:53;99293.25;;;24.39;44.34
27805;BME280;15183;51.350;11.102;2023-04-23T09:34:22;99291.44;;;24.31;44.13
27805;BME280;15183;51.350;11.102;2023-04-23T09:36:51;99302.81;;;24.37;43.98
27805;BME280;15183;51.350;11.102;2023-04-23T09:39:21;99302.47;;;24.60;44.49
27805;BME280;15183;51.350;11.102;2023-04-23T09:41:51;99285.34;;;24.68;43.54
27805;BME280;15183;51.350;11.102;2023-04-23T09:44:20;99290.63;;;24.85;42.95
27805;BME280;15183;51.350;11.102;2023-04-23T09:46:51;99296.16;;;24.89;42.72
27805;BME280;15183;51.350;11.102;2023-04-23T09:49:18;99271.84;;;24.80;42.71
27805;BME280;15183;51.350;11.102;2023-04-23T09:51:46;99287.56;;;24.99;43.37
27805;BME280;15183;51.350;11.102;2023-04-23T09:54:21;99287.59;;;25.24;43.13
27805;BME280;15183;51.350;11.102;2023-04-23T09:56:50;99278.47;;;25.54;41.93
27805;BME280;15183;51.350;11.102;2023-04-23T09:59:29;99273.38;;;25.77;41.94
27805;BME280;15183;51.350;11.102;2023-04-23T10:01:56;99269.97;;;25.80;42.19
27805;BME280;15183;51.350;11.102;2023-04-23T10:04:26;99246.00;;;25.70;42.21
27805;BME280;15183;51.350;11.102;2023-04-23T10:06:55;99255.28;;;25.69;41.03
27805;BME280;15183;51.350;11.102;2023-04-23T10:09:22;99253.84;;;25.59;41.16
27805;BME280;15183;51.350;11.102;2023-04-23T10:11:57;99272.16;;;25.62;40.89
27805;BME280;15183;51.350;11.102;2023-04-23T10:14:25;99269.19;;;25.55;41.36
27805;BME280;15183;51.350;11.102;2023-04-23T10:17:00;99258.16;;;25.60;40.57
27805;BME280;15183;51.350;11.102;2023-04-23T10:19:27;99281.81;;;26.00;40.41
27805;BME280;15183;51.350;11.102;2023-04-23T10:22:00;99269.84;;;26.30;40.54
27805;BME280;15183;51.350;11.102;2023-04-23T10:24:38;99270.97;;;26.73;39.92
27805;BME280;15183;51.350;11.102;2023-04-23T10:27:11;99251.06;;;26.69;39.69
27805;BME280;15183;51.350;11.102;2023-04-23T10:29:38;99285.22;;;26.99;39.84
27805;BME280;15183;51.350;11.102;2023-04-23T10:32:06;99291.38;;;27.12;39.14
27805;BME280;15183;51.350;11.102;2023-04-23T10:34:32;99235.94;;;26.84;38.29
27805;BME280;15183;51.350;11.102;2023-04-23T10:37:00;99286.63;;;27.25;38.62
27805;BME280;15183;51.350;11.102;2023-04-23T10:39:33;99285.50;;;27.26;37.95
27805;BME280;15183;51.350;11.102;2023-04-23T10:42:01;99283.03;;;27.37;38.05
27805;BME280;15183;51.350;11.102;2023-04-23T10:44:47;99277.16;;;27.51;37.75
27805;BME280;15183;51.350;11.102;2023-04-23T10:47:15;99279.75;;;27.63;38.00
27805;BME280;15183;51.350;11.102;2023-04-23T10:49:47;99267.44;;;27.69;37.69
27805;BME280;15183;51.350;11.102;2023-04-23T10:52:17;99259.94;;;27.82;37.54
27805;BME280;15183;51.350;11.102;2023-04-23T10:54:55;99270.78;;;27.98;37.26
27805;BME280;15183;51.350;11.102;2023-04-23T10:57:22;99263.13;;;28.04;36.97
27805;BME280;15183;51.350;11.102;2023-04-23T10:59:54;99264.72;;;28.25;36.84
27805;BME280;15183;51.350;11.102;2023-04-23T11:02:23;99267.34;;;28.41;37.08
27805;BME280;15183;51.350;11.102;2023-04-23T11:04:58;99261.06;;;28.60;37.27
27805;BME280;15183;51.350;11.102;2023-04-23T11:07:31;99265.44;;;28.65;36.65
27805;BME280;15183;51.350;11.102;2023-04-23T11:10:09;99240.94;;;28.45;36.15
27805;BME280;15183;51.350;11.102;2023-04-23T11:12:38;99256.78;;;28.39;35.90
27805;BME280;15183;51.350;11.102;2023-04-23T11:15:13;99234.38;;;28.07;36.05
27805;BME280;15183;51.350;11.102;2023-04-23T11:20:18;99241.69;;;28.02;36.84
27805;BME280;15183;51.350;11.102;2023-04-23T11:22:49;99220.31;;;27.65;38.57
27805;BME280;15183;51.350;11.102;2023-04-23T11:25:26;99223.31;;;27.60;37.24
27805;BME280;15183;51.350;11.102;2023-04-23T11:27:55;99247.88;;;27.64;36.56
27805;BME280;15183;51.350;11.102;2023-04-23T11:30:29;99222.47;;;27.40;36.54
27805;BME280;15183;51.350;11.102;2023-04-23T11:32:58;99231.41;;;27.56;36.31
27805;BME280;15183;51.350;11.102;2023-04-23T11:35:25;99206.28;;;27.47;35.77
27805;BME280;15183;51.350;11.102;2023-04-23T11:37:53;99213.28;;;27.64;36.17
27805;BME280;15183;51.350;11.102;2023-04-23T11:40:21;99210.44;;;27.77;35.88
27805;BME280;15183;51.350;11.102;2023-04-23T11:42:51;99209.88;;;27.87;35.21
27805;BME280;15183;51.350;11.102;2023-04-23T11:45:22;99198.28;;;27.90;35.38
27805;BME280;15183;51.350;11.102;2023-04-23T11:51:17;99218.09;;;27.91;35.85
27805;BME280;15183;51.350;11.102;2023-04-23T11:53:49;99197.63;;;27.77;34.21
27805;BME280;15183;51.350;11.102;2023-04-23T11:56:21;99201.06;;;27.74;34.84
27805;BME280;15183;51.350;11.102;2023-04-23T11:58:58;99209.72;;;27.80;34.58
27805;BME280;15183;51.350;11.102;2023-04-23T12:01:26;99207.94;;;27.87;34.85
27805;BME280;15183;51.350;11.102;2023-04-23T12:03:52;99197.25;;;27.79;34.73
27805;BME280;15183;51.350;11.102;2023-04-23T12:06:19;99198.91;;;27.83;34.80
27805;BME280;15183;51.350;11.102;2023-04-23T12:08:46;99175.97;;;27.84;35.18
27805;BME280;15183;51.350;11.102;2023-04-23T12:11:12;99175.81;;;27.97;34.49
27805;BME280;15183;51.350;11.102;2023-04-23T12:17:20;99177.59;;;28.28;33.85
27805;BME280;15183;51.350;11.102;2023-04-23T12:19:56;99190.63;;;28.39;33.58
27805;BME280;15183;51.350;11.102;2023-04-23T12:22:26;99186.31;;;28.38;33.84
27805;BME280;15183;51.350;11.102;2023-04-23T12:24:53;99196.16;;;28.42;34.13
27805;BME280;15183;51.350;11.102;2023-04-23T12:27:20;99175.72;;;28.33;33.71
27805;BME280;15183;51.350;11.102;2023-04-23T12:29:59;99198.16;;;28.45;34.06
27805;BME280;15183;51.350;11.102;2023-04-23T12:32:26;99176.06;;;28.31;33.75
27805;BME280;15183;51.350;11.102;2023-04-23T12:34:55;99181.53;;;28.31;33.30
27805;BME280;15183;51.350;11.102;2023-04-23T12:37:28;99181.19;;;28.33;33.12
27805;BME280;15183;51.350;11.102;2023-04-23T12:39:56;99168.44;;;28.17;33.40
27805;BME280;15183;51.350;11.102;2023-04-23T12:42:24;99183.13;;;28.12;33.31
27805;BME280;15183;51.350;11.102;2023-04-23T12:44:51;99173.31;;;28.08;33.36
27805;BME280;15183;51.350;11.102;2023-04-23T12:47:20;99150.75;;;28.07;32.88
27805;BME280;15183;51.350;11.102;2023-04-23T12:49:48;99144.75;;;28.21;32.69
27805;BME280;15183;51.350;11.102;2023-04-23T12:56:06;99148.41;;;28.52;33.42
27805;BME280;15183;51.350;11.102;2023-04-23T12:58:35;99152.66;;;28.77;32.95
27805;BME280;15183;51.350;11.102;2023-04-23T13:01:02;99145.91;;;28.90;32.55
27805;BME280;15183;51.350;11.102;2023-04-23T13:03:28;99149.41;;;29.17;32.66
27805;BME280;15183;51.350;11.102;2023-04-23T13:05:55;99127.00;;;29.05;30.94
27805;BME280;15183;51.350;11.102;2023-04-23T13:08:21;99137.97;;;28.81;31.43